の過去48時間の天気

Syktyvkar

現在時刻: 5/23 22:48 MSK (5/23 19:48 UTC) 以下の時間は現地時間です。

過去48時間のMETAR気象情報
時間 風向 風速(m/s) 視程 気温(℃) 湿度(%) 気圧(hPa) 天気現象
23 22:00 北西 2 10km以上 3 60 1006
23 21:30 北西 2 10km以上 3 60 1006
23 21:00 北西 2 10km以上 4 56 1006
23 20:30 北西 2 10km以上 4 52 1006
23 20:00 北西 2 10km以上 5 48 1006
23 19:30 2 10km以上 5 48 1006
23 19:00 3 10km以上 5 48 1006
23 18:30 北北西 3 10km以上 5 48 1005
23 18:00 北北西 3 10km以上 5 48 1005
23 17:30 4 10km以上 5 48 1005
23 17:00 3 10km以上 5 52 1005
23 16:30 4 10km以上 5 48 1005
23 16:00 3 10km以上 6 49 1005
23 15:30 4 10km以上 5 52 1005
23 15:00 4 10km以上 6 49 1005
23 14:30 3 10km以上 6 52 1005
23 14:00 5 10km以上 6 52 1005
23 13:30 5 10km以上 5 56 1005
23 13:00 5 10km以上 5 61 1005
23 12:30 5 10km以上 5 65 1005
23 12:00 4 10km以上 4 70 1005
23 11:30 5 10km以上 3 75 1004
23 11:00 5 10km以上 3 75 1004
23 10:30 5 10km以上 2 81 1004 弱いしゅう雪 弱いしゅう雨
23 10:00 4 7000m 1 93 1004 弱いしゅう雪 弱いしゅう雨
23 09:30 5 9000m 1 93 1004 弱いしゅう雪 弱いしゅう雨
23 09:00 3 2600m 1 93 1004 弱いしゅう雪 弱いしゅう雨
23 08:30 4 7000m 1 93 1003 弱いしゅう雪 弱いしゅう雨
23 08:00 北北東 5 4600m 1 93 1003 弱いしゅう雪
23 07:30 4 3100m 1 100 1003 弱いしゅう雪
23 07:00 5 5000m 2 93 1003 弱いしゅう雪 弱いしゅう雨
23 06:30 4 7000m 3 93 1003 弱いしゅう雨
23 06:00 5 10km以上 5 87 1002 弱いしゅう雨
23 05:30 4 10km以上 6 81 1002
23 05:00 2 10km以上 6 81 1002
23 04:30 3 10km以上 7 76 1002
23 04:00 北北東 3 10km以上 7 76 1002
23 03:30 北北東 2 10km以上 6 81 1002
23 03:00 2 10km以上 7 76 1002
23 02:30 北西 3 10km以上 7 76 1003
23 02:00 西北西 3 10km以上 8 71 1003
23 01:30 北西 2 10km以上 8 71 1003
23 01:00 西北西 2 10km以上 8 71 1003
23 00:30 西北西 2 10km以上 9 71 1003
23 00:00 北西 2 10km以上 9 66 1004
22 23:30 北西 2 10km以上 9 66 1004
22 23:00 北西 2 10km以上 10 62 1004
22 22:30 西 3 10km以上 11 58 1004
UUYY 231900Z 31002MPS CAVOK 03/M04 Q1006 R36/61D NOSIG RMK QFE745/0994
UUYY 231830Z 31002MPS CAVOK 03/M04 Q1006 R36/61D NOSIG RMK QFE745/0994
UUYY 231800Z 31002MPS 280V350 CAVOK 04/M04 Q1006 R36/61D NOSIG RMK QFE745/0994
UUYY 231730Z 31002MPS 290V010 CAVOK 04/M05 Q1006 R36/61D NOSIG RMK QFE745/0994
UUYY 231700Z 32002MPS 280V360 CAVOK 05/M05 Q1006 R36/61D NOSIG RMK QFE745/0994
UUYY 231630Z 35002MPS CAVOK 05/M05 Q1006 R36/61D NOSIG RMK QFE745/0994
UUYY 231600Z 35003MPS 300V030 CAVOK 05/M05 Q1006 R36/61D NOSIG RMK QFE745/0994
UUYY 231530Z 34003MPS 300V020 CAVOK 05/M05 Q1005 R36/61D NOSIG RMK QFE745/0994
UUYY 231500Z 34003MPS 300V020 CAVOK 05/M05 Q1005 R36/61D NOSIG RMK QFE745/0994
UUYY 231430Z 35004MPS CAVOK 05/M05 Q1005 R36/61D NOSIG RMK QFE745/0994
UUYY 231400Z 35003MPS 310V020 CAVOK 05/M04 Q1005 R36/61D NOSIG RMK QFE745/0993
UUYY 231330Z 35004MPS CAVOK 05/M05 Q1005 R36/61D NOSIG RMK QFE745/0993
UUYY 231300Z 35003MPS 9999 OVC048 06/M04 Q1005 R36/CLRD61 NOSIG RMK QFE745/0993
UUYY 231230Z 35004MPS 310V020 9999 BKN046CB 05/M04 Q1005 R36/61D NOSIG RMK QFE745/0993
UUYY 231200Z 01004MPS 9999 BKN043CB 06/M04 Q1005 R36/61D NOSIG RMK QFE745/0993
UUYY 231130Z 35003MPS 300V030 9999 BKN040CB 06/M03 Q1005 R36/29//51 NOSIG RMK QFE745/0993
UUYY 231100Z 36005MPS 9999 BKN040CB 06/M03 Q1005 R36/29//51 NOSIG RMK QFE745/0993
UUYY 231030Z 01005MPS 9999 BKN033CB 05/M03 Q1005 R36/29//51 NOSIG RMK QFE745/0993
UUYY 231000Z 36005MPS 9999 BKN030CB 05/M02 Q1005 R36/29//51 NOSIG RMK QFE745/0993
UUYY 230930Z 36005MPS 9999 BKN030CB 05/M01 Q1005 R36/29//51 NOSIG RMK QFE744/0993
UUYY 230900Z 35004MPS 310V030 9999 BKN025CB 04/M01 Q1005 R36/29//51 NOSIG RMK QFE744/0993
UUYY 230830Z 01005G10MPS 300V030 9999 BKN024CB 03/M01 Q1004 R36/29//51 NOSIG RMK QFE744/0993
UUYY 230800Z 36005MPS 310V030 9999 SCT020CB 03/M01 Q1004 R36/29//51 NOSIG RMK QFE744/0992
UUYY 230730Z 01005G10MPS 9999 -SHSNRA SCT012 BKN028CB 02/M01 Q1004 R36/29//51 TEMPO 1000 SHSNRA RMK QFE744/0992
UUYY 230700Z 35004MPS 280V020 7000 -SHSNRA SCT010 BKN026CB 01/M00 Q1004 R36/29//51 TEMPO 1000 SHSNRA RMK QFE744/0992
UUYY 230630Z 36005MPS 9000 -SHSNRA SCT008 BKN022CB 01/M00 Q1004 R36/29//51 TEMPO 1000 SHSNRA RMK QFE744/0992
UUYY 230600Z 35003MPS 2600 -SHSNRA SCT008 BKN022CB 01/M00 Q1004 R36/29//51 TEMPO 1000 SHSNRA RMK QFE744/0992
UUYY 230530Z 35004MPS 7000 -SHSNRA SCT009 BKN021CB 01/00 Q1003 R36/29//51 TEMPO 1000 SHSNRA RMK QFE744/0992
UUYY 230500Z 02005MPS 4600 -SHSN SCT006 BKN015CB OVC024 01/00 Q1003 R36/29//51 TEMPO 1000 SHSNRA RMK QFE744/0992
UUYY 230430Z 01004MPS 3100 -SHSN SCT005 BKN015CB OVC024 01/01 Q1003 R36/29//51 TEMPO 1000 SHSNRA RMK QFE743/0991
UUYY 230400Z 01005MPS 5000 -SHSNRA SCT006 BKN013CB OVC028 02/01 Q1003 R36/29//51 TEMPO 1000 SHSNRA RMK QFE743/0991
UUYY 230330Z 36004G10MPS 7000 -SHRA BKN014CB OVC030 03/02 Q1003 R36/29//51 TEMPO 1000 SHSNRA RMK QFE743/0991
UUYY 230300Z 01005MPS 9999 -SHRA BKN017CB OVC040 05/03 Q1002 R36/61D NOSIG RMK QFE742/0990
UUYY 230230Z 36004MPS 9999 SCT025CB BKN046 06/03 Q1002 R36/61D NOSIG RMK QFE742/0990
UUYY 230200Z 35002G07MPS 300V010 9999 SCT035CB 06/03 Q1002 R36/61D NOSIG RMK QFE742/0990
UUYY 230130Z 01003MPS 9999 BKN037CB 07/03 Q1002 R36/61D NOSIG RMK QFE742/0990
UUYY 230100Z 02003MPS 9999 SCT036CB 07/03 Q1002 R36/61D NOSIG RMK QFE742/0990
UUYY 230030Z 02002MPS 9999 FEW040CB 06/03 Q1002 R36/61D NOSIG RMK QFE742/0990
UUYY 230000Z 36002MPS 9999 FEW040CB 07/03 Q1002 R36/61D NOSIG RMK QFE743/0990
UUYY 222330Z 32003MPS 290V010 9999 FEW040CB 07/03 Q1003 R36/61D NOSIG RMK QFE743/0991
UUYY 222300Z 30003MPS 9999 FEW038CB 08/03 Q1003 R36/61D NOSIG RMK QFE743/0991
UUYY 222230Z 31002MPS 280V350 9999 FEW040CB 08/03 Q1003 R36/61D NOSIG RMK QFE743/0991
UUYY 222200Z 29002MPS 9999 SCT040CB 08/03 Q1003 R36/61D NOSIG RMK QFE743/0991
UUYY 222130Z 30002MPS 9999 SCT040CB 09/04 Q1003 R36/61D NOSIG RMK QFE743/0991
UUYY 222100Z 31002MPS 9999 FEW033CB 09/03 Q1004 R36/61D NOSIG RMK QFE744/0992
UUYY 222030Z 31002MPS 9999 FEW036CB 09/03 Q1004 R36/61D NOSIG RMK QFE744/0992
UUYY 222000Z 31002MPS 9999 SCT033CB 10/03 Q1004 R36/61D NOSIG RMK QFE744/0992
UUYY 221930Z 28003MPS 9999 SCT040CB 11/03 Q1004 R36/61D NOSIG RMK QFE744/0992